sensor_id;sensor_type;location;lat;lon;timestamp;pressure;altitude;pressure_sealevel;temperature;humidity
75063;BME280;63981;51.052;13.754;2022-12-18T00:01:49;102090.22;;;-7.87;89.19
75063;BME280;63981;51.052;13.754;2022-12-18T00:04:20;102053.84;;;-8.23;89.41
75063;BME280;63981;51.052;13.754;2022-12-18T00:06:51;102065.72;;;-8.25;88.79
75063;BME280;63981;51.052;13.754;2022-12-18T00:09:17;102063.91;;;-8.28;88.73
75063;BME280;63981;51.052;13.754;2022-12-18T00:11:43;102086.53;;;-8.16;88.77
75063;BME280;63981;51.052;13.754;2022-12-18T00:14:13;102095.03;;;-8.17;89.22
75063;BME280;63981;51.052;13.754;2022-12-18T00:16:39;102117.91;;;-8.20;89.22
75063;BME280;63981;51.052;13.754;2022-12-18T00:19:06;102112.66;;;-8.23;89.11
75063;BME280;63981;51.052;13.754;2022-12-18T00:21:33;102122.59;;;-8.31;88.59
75063;BME280;63981;51.052;13.754;2022-12-18T00:24:00;102071.31;;;-8.56;89.07
75063;BME280;63981;51.052;13.754;2022-12-18T00:26:29;102114.00;;;-8.33;88.39
75063;BME280;63981;51.052;13.754;2022-12-18T00:29:07;102119.13;;;-8.33;89.01
75063;BME280;63981;51.052;13.754;2022-12-18T00:31:34;102103.31;;;-8.23;88.49
75063;BME280;63981;51.052;13.754;2022-12-18T00:34:01;102122.28;;;-8.18;88.64
75063;BME280;63981;51.052;13.754;2022-12-18T00:36:33;102125.50;;;-8.22;88.22
75063;BME280;63981;51.052;13.754;2022-12-18T00:39:21;102142.50;;;-8.24;88.66
75063;BME280;63981;51.052;13.754;2022-12-18T00:41:48;102132.03;;;-8.30;89.31
75063;BME280;63981;51.052;13.754;2022-12-18T00:44:35;102107.28;;;-8.52;88.99
75063;BME280;63981;51.052;13.754;2022-12-18T00:47:02;102139.41;;;-8.38;88.83
75063;BME280;63981;51.052;13.754;2022-12-18T00:49:28;102147.94;;;-8.37;89.29
75063;BME280;63981;51.052;13.754;2022-12-18T00:51:58;102155.53;;;-8.18;89.25
75063;BME280;63981;51.052;13.754;2022-12-18T00:54:25;102146.69;;;-8.05;88.26
75063;BME280;63981;51.052;13.754;2022-12-18T00:56:51;102141.69;;;-8.23;88.33
75063;BME280;63981;51.052;13.754;2022-12-18T00:59:20;102145.63;;;-8.31;88.20
75063;BME280;63981;51.052;13.754;2022-12-18T01:01:47;102146.03;;;-8.43;88.04
75063;BME280;63981;51.052;13.754;2022-12-18T01:04:13;102087.72;;;-8.72;88.09
75063;BME280;63981;51.052;13.754;2022-12-18T01:06:42;102139.88;;;-8.25;88.50
75063;BME280;63981;51.052;13.754;2022-12-18T01:09:09;102140.22;;;-7.95;87.54
75063;BME280;63981;51.052;13.754;2022-12-18T01:12:02;102154.38;;;-7.83;87.32
75063;BME280;63981;51.052;13.754;2022-12-18T01:14:30;102095.91;;;-8.17;86.46
75063;BME280;63981;51.052;13.754;2022-12-18T01:16:56;102149.19;;;-7.63;84.56
75063;BME280;63981;51.052;13.754;2022-12-18T01:19:24;102148.44;;;-7.38;82.56
75063;BME280;63981;51.052;13.754;2022-12-18T01:21:50;102151.56;;;-7.46;82.95
75063;BME280;63981;51.052;13.754;2022-12-18T01:24:16;102149.75;;;-7.48;82.50
75063;BME280;63981;51.052;13.754;2022-12-18T01:26:47;102159.38;;;-7.65;82.05
75063;BME280;63981;51.052;13.754;2022-12-18T01:29:14;102135.75;;;-7.80;82.04
75063;BME280;63981;51.052;13.754;2022-12-18T01:31:40;102166.78;;;-7.93;82.10
75063;BME280;63981;51.052;13.754;2022-12-18T01:34:07;102165.69;;;-7.98;83.60
75063;BME280;63981;51.052;13.754;2022-12-18T01:36:36;102106.09;;;-8.39;83.17
75063;BME280;63981;51.052;13.754;2022-12-18T01:39:05;102172.06;;;-8.10;82.96
75063;BME280;63981;51.052;13.754;2022-12-18T01:41:33;102175.50;;;-8.51;84.63
75063;BME280;63981;51.052;13.754;2022-12-18T01:44:54;102174.97;;;-8.63;84.87
75063;BME280;63981;51.052;13.754;2022-12-18T01:47:48;102170.34;;;-8.91;85.89
75063;BME280;63981;51.052;13.754;2022-12-18T01:52:47;102167.25;;;-9.03;86.63
75063;BME280;63981;51.052;13.754;2022-12-18T01:55:17;102169.22;;;-8.98;86.85
75063;BME280;63981;51.052;13.754;2022-12-18T01:57:44;102167.31;;;-9.02;86.78
75063;BME280;63981;51.052;13.754;2022-12-18T02:00:15;102102.88;;;-9.53;86.68
75063;BME280;63981;51.052;13.754;2022-12-18T02:02:43;102187.97;;;-8.97;86.92
75063;BME280;63981;51.052;13.754;2022-12-18T02:05:11;102113.47;;;-9.26;86.52
75063;BME280;63981;51.052;13.754;2022-12-18T02:10:31;102176.00;;;-8.79;86.65
75063;BME280;63981;51.052;13.754;2022-12-18T02:13:20;102184.31;;;-9.02;86.92
75063;BME280;63981;51.052;13.754;2022-12-18T02:15:59;102177.75;;;-8.78;86.48
75063;BME280;63981;51.052;13.754;2022-12-18T02:18:33;102136.22;;;-8.53;84.83
75063;BME280;63981;51.052;13.754;2022-12-18T02:21:13;102176.38;;;-8.09;82.86
75063;BME280;63981;51.052;13.754;2022-12-18T02:24:45;102170.81;;;-8.80;85.18
75063;BME280;63981;51.052;13.754;2022-12-18T02:27:15;102165.09;;;-8.94;85.63
75063;BME280;63981;51.052;13.754;2022-12-18T02:29:49;102141.53;;;-9.26;86.05
75063;BME280;63981;51.052;13.754;2022-12-18T02:32:22;102179.56;;;-8.95;85.84
75063;BME280;63981;51.052;13.754;2022-12-18T02:34:51;102191.53;;;-8.34;84.04
75063;BME280;63981;51.052;13.754;2022-12-18T02:37:23;102186.25;;;-8.39;83.51
75063;BME280;63981;51.052;13.754;2022-12-18T02:39:53;102153.88;;;-8.59;84.17
75063;BME280;63981;51.052;13.754;2022-12-18T02:42:22;102129.69;;;-8.24;81.60
75063;BME280;63981;51.052;13.754;2022-12-18T02:44:50;102162.78;;;-8.28;82.35
75063;BME280;63981;51.052;13.754;2022-12-18T02:47:23;102185.16;;;-8.23;82.48
75063;BME280;63981;51.052;13.754;2022-12-18T02:58:10;102184.16;;;-8.47;84.30
75063;BME280;63981;51.052;13.754;2022-12-18T03:00:45;102185.44;;;-8.17;82.62
75063;BME280;63981;51.052;13.754;2022-12-18T03:03:27;102179.63;;;-8.13;82.65
75063;BME280;63981;51.052;13.754;2022-12-18T03:06:10;102185.50;;;-8.15;82.70
75063;BME280;63981;51.052;13.754;2022-12-18T03:08:42;102186.31;;;-8.16;83.08
75063;BME280;63981;51.052;13.754;2022-12-18T03:11:12;102177.94;;;-8.12;82.25
75063;BME280;63981;51.052;13.754;2022-12-18T03:13:54;102182.06;;;-8.16;82.84
75063;BME280;63981;51.052;13.754;2022-12-18T03:16:25;102183.69;;;-8.18;82.53
75063;BME280;63981;51.052;13.754;2022-12-18T03:18:58;102194.63;;;-8.20;82.51
75063;BME280;63981;51.052;13.754;2022-12-18T03:21:35;102184.91;;;-7.87;82.07
75063;BME280;63981;51.052;13.754;2022-12-18T03:24:06;102194.28;;;-7.88;81.23
75063;BME280;63981;51.052;13.754;2022-12-18T03:26:35;102201.75;;;-7.72;80.34
75063;BME280;63981;51.052;13.754;2022-12-18T03:29:08;102194.66;;;-7.99;81.67
75063;BME280;63981;51.052;13.754;2022-12-18T03:31:42;102188.28;;;-7.67;80.82
75063;BME280;63981;51.052;13.754;2022-12-18T03:34:16;102194.41;;;-7.85;81.01
75063;BME280;63981;51.052;13.754;2022-12-18T03:36:46;102105.53;;;-8.32;80.83
75063;BME280;63981;51.052;13.754;2022-12-18T03:39:14;102202.44;;;-7.96;81.39
75063;BME280;63981;51.052;13.754;2022-12-18T03:45:04;102148.53;;;-8.64;82.65
75063;BME280;63981;51.052;13.754;2022-12-18T03:47:57;102206.56;;;-8.21;83.38
75063;BME280;63981;51.052;13.754;2022-12-18T03:50:49;102200.03;;;-8.35;82.97
75063;BME280;63981;51.052;13.754;2022-12-18T03:55:55;102191.91;;;-8.46;83.86
75063;BME280;63981;51.052;13.754;2022-12-18T03:58:24;102194.63;;;-8.20;83.08
75063;BME280;63981;51.052;13.754;2022-12-18T04:01:13;102204.56;;;-8.28;83.47
75063;BME280;63981;51.052;13.754;2022-12-18T04:03:43;102066.09;;;-9.19;82.67
75063;BME280;63981;51.052;13.754;2022-12-18T04:06:11;102188.84;;;-8.37;82.42
75063;BME280;63981;51.052;13.754;2022-12-18T04:08:41;102138.34;;;-8.83;82.12
75063;BME280;63981;51.052;13.754;2022-12-18T04:11:10;102208.03;;;-8.47;82.23
75063;BME280;63981;51.052;13.754;2022-12-18T04:13:38;102174.13;;;-8.83;82.47
75063;BME280;63981;51.052;13.754;2022-12-18T04:16:14;102223.00;;;-8.75;82.49
75063;BME280;63981;51.052;13.754;2022-12-18T04:18:42;102230.59;;;-8.96;83.02
75063;BME280;63981;51.052;13.754;2022-12-18T04:21:10;102222.69;;;-9.01;83.38
75063;BME280;63981;51.052;13.754;2022-12-18T04:23:37;102227.56;;;-8.87;82.89
75063;BME280;63981;51.052;13.754;2022-12-18T04:26:03;102232.53;;;-9.10;83.27
75063;BME280;63981;51.052;13.754;2022-12-18T04:28:44;102219.34;;;-9.37;83.54
75063;BME280;63981;51.052;13.754;2022-12-18T04:31:12;102228.53;;;-9.23;83.54
75063;BME280;63981;51.052;13.754;2022-12-18T04:33:39;102226.44;;;-8.55;82.00
75063;BME280;63981;51.052;13.754;2022-12-18T04:36:06;102227.91;;;-8.60;81.15
75063;BME280;63981;51.052;13.754;2022-12-18T04:38:33;102164.16;;;-8.77;79.99
75063;BME280;63981;51.052;13.754;2022-12-18T04:41:05;102227.72;;;-8.65;80.03
75063;BME280;63981;51.052;13.754;2022-12-18T04:43:32;102241.13;;;-9.08;81.55
75063;BME280;63981;51.052;13.754;2022-12-18T04:46:06;102235.25;;;-9.42;82.42
75063;BME280;63981;51.052;13.754;2022-12-18T04:48:33;102237.34;;;-9.52;83.38
75063;BME280;63981;51.052;13.754;2022-12-18T04:50:59;102247.00;;;-9.46;83.72
75063;BME280;63981;51.052;13.754;2022-12-18T04:53:25;102222.78;;;-9.72;83.56
75063;BME280;63981;51.052;13.754;2022-12-18T04:56:09;102228.09;;;-9.85;83.75
75063;BME280;63981;51.052;13.754;2022-12-18T04:58:39;102240.72;;;-9.70;84.00
75063;BME280;63981;51.052;13.754;2022-12-18T05:01:06;102236.13;;;-9.42;83.15
75063;BME280;63981;51.052;13.754;2022-12-18T05:03:34;102229.66;;;-8.98;82.56
75063;BME280;63981;51.052;13.754;2022-12-18T05:06:01;102220.13;;;-8.83;81.26
75063;BME280;63981;51.052;13.754;2022-12-18T05:08:28;102219.69;;;-8.92;80.62
75063;BME280;63981;51.052;13.754;2022-12-18T05:11:05;102243.03;;;-8.84;80.63
75063;BME280;63981;51.052;13.754;2022-12-18T05:13:33;102220.31;;;-9.15;80.73
75063;BME280;63981;51.052;13.754;2022-12-18T05:16:00;102232.97;;;-8.99;80.05
75063;BME280;63981;51.052;13.754;2022-12-18T05:18:26;102229.31;;;-8.86;80.01
75063;BME280;63981;51.052;13.754;2022-12-18T05:20:54;102211.50;;;-9.59;81.14
75063;BME280;63981;51.052;13.754;2022-12-18T05:23:23;102228.09;;;-9.67;82.13
75063;BME280;63981;51.052;13.754;2022-12-18T05:26:08;102236.47;;;-9.88;82.79
75063;BME280;63981;51.052;13.754;2022-12-18T05:28:35;102240.31;;;-9.96;83.68
75063;BME280;63981;51.052;13.754;2022-12-18T05:31:09;102231.91;;;-10.11;83.55
75063;BME280;63981;51.052;13.754;2022-12-18T05:33:36;102250.06;;;-10.05;83.95
75063;BME280;63981;51.052;13.754;2022-12-18T05:36:04;102254.34;;;-10.04;84.24
75063;BME280;63981;51.052;13.754;2022-12-18T05:38:33;102246.94;;;-9.99;84.54
75063;BME280;63981;51.052;13.754;2022-12-18T05:41:00;102243.34;;;-10.03;84.13
75063;BME280;63981;51.052;13.754;2022-12-18T05:43:27;102242.59;;;-10.02;84.56
75063;BME280;63981;51.052;13.754;2022-12-18T05:45:54;102204.81;;;-10.27;84.42
75063;BME280;63981;51.052;13.754;2022-12-18T05:48:22;102248.69;;;-9.98;84.78
75063;BME280;63981;51.052;13.754;2022-12-18T05:50:49;102243.47;;;-10.01;84.94
75063;BME280;63981;51.052;13.754;2022-12-18T05:53:18;102206.81;;;-10.20;84.73
75063;BME280;63981;51.052;13.754;2022-12-18T05:55:45;102243.75;;;-9.95;84.91
75063;BME280;63981;51.052;13.754;2022-12-18T05:58:12;102251.97;;;-10.01;84.52
75063;BME280;63981;51.052;13.754;2022-12-18T08:01:40;102267.34;;;-9.99;84.81
75063;BME280;63981;51.052;13.754;2022-12-18T08:04:06;102339.41;;;-9.35;84.40
75063;BME280;63981;51.052;13.754;2022-12-18T08:06:32;102338.47;;;-9.37;84.23
75063;BME280;63981;51.052;13.754;2022-12-18T08:08:59;102328.19;;;-9.21;84.69
75063;BME280;63981;51.052;13.754;2022-12-18T08:11:51;102326.31;;;-8.70;82.80
75063;BME280;63981;51.052;13.754;2022-12-18T08:14:17;102319.00;;;-8.43;81.40
75063;BME280;63981;51.052;13.754;2022-12-18T08:16:43;102316.78;;;-8.55;81.89
75063;BME280;63981;51.052;13.754;2022-12-18T08:19:10;102258.88;;;-9.11;82.59
75063;BME280;63981;51.052;13.754;2022-12-18T08:21:36;102305.31;;;-8.63;82.59
75063;BME280;63981;51.052;13.754;2022-12-18T08:24:03;102221.75;;;-9.03;82.55
75063;BME280;63981;51.052;13.754;2022-12-18T08:26:51;102208.41;;;-8.58;81.22
75063;BME280;63981;51.052;13.754;2022-12-18T08:29:17;102286.16;;;-8.34;82.00
75063;BME280;63981;51.052;13.754;2022-12-18T08:31:43;102273.81;;;-8.44;82.33
75063;BME280;63981;51.052;13.754;2022-12-18T08:34:10;102011.81;;;-9.54;81.54
75063;BME280;63981;51.052;13.754;2022-12-18T08:36:37;102321.59;;;-8.03;82.52
75063;BME280;63981;51.052;13.754;2022-12-18T08:39:04;102324.41;;;-7.97;82.35
75063;BME280;63981;51.052;13.754;2022-12-18T08:41:31;102311.53;;;-7.98;83.31
75063;BME280;63981;51.052;13.754;2022-12-18T08:43:57;102311.75;;;-7.94;83.23
75063;BME280;63981;51.052;13.754;2022-12-18T08:46:43;102283.63;;;-7.94;82.70
75063;BME280;63981;51.052;13.754;2022-12-18T08:49:11;102315.47;;;-7.66;82.65
75063;BME280;63981;51.052;13.754;2022-12-18T08:51:40;102315.84;;;-7.16;81.59
75063;BME280;63981;51.052;13.754;2022-12-18T08:54:07;102298.38;;;-6.81;80.31
75063;BME280;63981;51.052;13.754;2022-12-18T08:56:33;102303.13;;;-7.13;81.61
75063;BME280;63981;51.052;13.754;2022-12-18T08:59:00;102304.56;;;-7.19;81.75
75063;BME280;63981;51.052;13.754;2022-12-18T09:01:26;102323.28;;;-6.55;80.94
75063;BME280;63981;51.052;13.754;2022-12-18T09:03:53;102307.94;;;-6.53;81.62
75063;BME280;63981;51.052;13.754;2022-12-18T09:06:21;102311.81;;;-5.15;80.27
75063;BME280;63981;51.052;13.754;2022-12-18T09:08:48;102262.84;;;-4.91;79.70
75063;BME280;63981;51.052;13.754;2022-12-18T09:11:20;102282.97;;;-3.50;77.17
75063;BME280;63981;51.052;13.754;2022-12-18T09:13:47;102274.56;;;-3.77;73.47
75063;BME280;63981;51.052;13.754;2022-12-18T09:16:13;102278.94;;;-4.38;74.11
75063;BME280;63981;51.052;13.754;2022-12-18T09:18:40;102286.63;;;-4.08;75.01
75063;BME280;63981;51.052;13.754;2022-12-18T09:21:17;102312.22;;;-3.49;72.94
75063;BME280;63981;51.052;13.754;2022-12-18T09:23:49;102311.69;;;-3.69;72.50
75063;BME280;63981;51.052;13.754;2022-12-18T09:26:15;102331.41;;;-3.38;72.70
75063;BME280;63981;51.052;13.754;2022-12-18T09:28:42;102285.72;;;-3.42;72.04
75063;BME280;63981;51.052;13.754;2022-12-18T09:31:11;102316.34;;;-2.84;70.95
75063;BME280;63981;51.052;13.754;2022-12-18T09:33:37;102329.56;;;-3.06;72.02
75063;BME280;63981;51.052;13.754;2022-12-18T09:36:06;102229.78;;;-3.46;71.97
75063;BME280;63981;51.052;13.754;2022-12-18T09:38:34;102274.59;;;-3.04;71.82
75063;BME280;63981;51.052;13.754;2022-12-18T09:43:52;102305.63;;;-2.61;71.29
75063;BME280;63981;51.052;13.754;2022-12-18T09:46:42;102278.78;;;-2.70;71.70
75063;BME280;63981;51.052;13.754;2022-12-18T09:49:15;102250.47;;;-2.67;71.52
75063;BME280;63981;51.052;13.754;2022-12-18T09:51:49;102300.66;;;-1.09;66.56
75063;BME280;63981;51.052;13.754;2022-12-18T09:54:25;102259.47;;;-0.24;64.24
75063;BME280;63981;51.052;13.754;2022-12-18T09:56:53;102280.50;;;1.16;60.64
75063;BME280;63981;51.052;13.754;2022-12-18T09:59:24;102252.19;;;1.82;58.47
75063;BME280;63981;51.052;13.754;2022-12-18T10:01:51;102255.56;;;1.56;58.18
75063;BME280;63981;51.052;13.754;2022-12-18T10:04:18;102272.25;;;0.50;61.26
75063;BME280;63981;51.052;13.754;2022-12-18T10:09:34;102244.84;;;0.91;59.15
75063;BME280;63981;51.052;13.754;2022-12-18T10:15:15;102236.75;;;0.40;61.02
75063;BME280;63981;51.052;13.754;2022-12-18T10:18:01;102215.44;;;-0.22;62.20
75063;BME280;63981;51.052;13.754;2022-12-18T10:20:43;102238.81;;;-0.16;62.44
75063;BME280;63981;51.052;13.754;2022-12-18T10:26:07;102235.31;;;-0.20;63.42
75063;BME280;63981;51.052;13.754;2022-12-18T10:28:37;102227.09;;;0.25;61.94
75063;BME280;63981;51.052;13.754;2022-12-18T10:31:06;102226.22;;;0.23;60.57
75063;BME280;63981;51.052;13.754;2022-12-18T10:33:33;102217.78;;;0.49;61.07
75063;BME280;63981;51.052;13.754;2022-12-18T10:36:00;102202.38;;;0.73;59.79
75063;BME280;63981;51.052;13.754;2022-12-18T10:38:29;102196.38;;;0.80;60.30
75063;BME280;63981;51.052;13.754;2022-12-18T10:43:45;102189.44;;;0.79;58.76
75063;BME280;63981;51.052;13.754;2022-12-18T10:46:12;102194.78;;;1.14;57.37
75063;BME280;63981;51.052;13.754;2022-12-18T10:51:07;102139.13;;;0.59;58.70
75063;BME280;63981;51.052;13.754;2022-12-18T10:53:36;102142.66;;;0.67;59.40
75063;BME280;63981;51.052;13.754;2022-12-18T10:56:04;102144.16;;;0.30;59.71
75063;BME280;63981;51.052;13.754;2022-12-18T10:58:33;102140.34;;;1.56;57.93
75063;BME280;63981;51.052;13.754;2022-12-18T11:01:13;102178.56;;;2.24;55.43
75063;BME280;63981;51.052;13.754;2022-12-18T11:06:22;102183.50;;;3.28;52.53
75063;BME280;63981;51.052;13.754;2022-12-18T11:09:05;102178.72;;;3.98;50.28
75063;BME280;63981;51.052;13.754;2022-12-18T11:11:32;102160.78;;;4.58;48.93
75063;BME280;63981;51.052;13.754;2022-12-18T11:14:11;102158.56;;;6.20;44.34
75063;BME280;63981;51.052;13.754;2022-12-18T11:16:45;102145.06;;;6.89;42.63
75063;BME280;63981;51.052;13.754;2022-12-18T11:21:50;102108.56;;;8.63;39.44
75063;BME280;63981;51.052;13.754;2022-12-18T11:26:50;102129.91;;;7.05;40.55
75063;BME280;63981;51.052;13.754;2022-12-18T11:29:22;102130.75;;;7.46;39.12
75063;BME280;63981;51.052;13.754;2022-12-18T11:31:49;102133.19;;;9.49;37.34
75063;BME280;63981;51.052;13.754;2022-12-18T11:34:28;102128.59;;;10.36;34.85
75063;BME280;63981;51.052;13.754;2022-12-18T11:36:57;102049.41;;;9.35;36.52
75063;BME280;63981;51.052;13.754;2022-12-18T11:39:36;102126.19;;;10.30;33.64
75063;BME280;63981;51.052;13.754;2022-12-18T11:42:36;102128.47;;;6.89;38.97
75063;BME280;63981;51.052;13.754;2022-12-18T11:45:23;102138.50;;;4.22;45.90
75063;BME280;63981;51.052;13.754;2022-12-18T11:47:58;102147.69;;;3.57;47.75
75063;BME280;63981;51.052;13.754;2022-12-18T11:50:30;102149.81;;;2.71;49.70
75063;BME280;63981;51.052;13.754;2022-12-18T11:52:59;102123.00;;;1.30;51.84
75063;BME280;63981;51.052;13.754;2022-12-18T12:00:26;102172.22;;;1.03;56.55
75063;BME280;63981;51.052;13.754;2022-12-18T12:06:31;102175.81;;;-0.09;57.99
75063;BME280;63981;51.052;13.754;2022-12-18T12:22:42;102083.94;;;-1.28;61.20
75063;BME280;63981;51.052;13.754;2022-12-18T12:25:46;102198.03;;;-1.05;63.16
75063;BME280;63981;51.052;13.754;2022-12-18T12:34:17;102213.09;;;-0.77;63.14
75063;BME280;63981;51.052;13.754;2022-12-18T12:39:30;102176.34;;;-1.16;61.29
75063;BME280;63981;51.052;13.754;2022-12-18T12:41:59;102228.63;;;-1.39;63.44
75063;BME280;63981;51.052;13.754;2022-12-18T12:44:48;102227.97;;;-1.26;63.08
75063;BME280;63981;51.052;13.754;2022-12-18T12:47:20;102231.44;;;-1.22;63.03
75063;BME280;63981;51.052;13.754;2022-12-18T12:49:50;102199.50;;;-1.27;63.57
75063;BME280;63981;51.052;13.754;2022-12-18T12:54:51;102203.19;;;-1.07;62.92
75063;BME280;63981;51.052;13.754;2022-12-18T12:57:23;102194.91;;;-1.43;64.80
75063;BME280;63981;51.052;13.754;2022-12-18T13:05:43;102204.41;;;-1.44;62.33
75063;BME280;63981;51.052;13.754;2022-12-18T13:08:25;102192.22;;;-1.53;64.01
75063;BME280;63981;51.052;13.754;2022-12-18T13:10:55;102194.88;;;-1.46;63.11
75063;BME280;63981;51.052;13.754;2022-12-18T13:13:54;102209.88;;;-1.82;63.41
75063;BME280;63981;51.052;13.754;2022-12-18T13:16:25;102164.44;;;-2.19;65.30
75063;BME280;63981;51.052;13.754;2022-12-18T13:18:58;102172.41;;;-2.06;64.48
75063;BME280;63981;51.052;13.754;2022-12-18T13:21:28;102195.97;;;-1.88;65.59
75063;BME280;63981;51.052;13.754;2022-12-18T13:23:56;102183.38;;;-2.20;65.78
75063;BME280;63981;51.052;13.754;2022-12-18T13:28:53;102184.91;;;-2.29;65.98
75063;BME280;63981;51.052;13.754;2022-12-18T13:34:29;102157.53;;;-2.67;66.19
75063;BME280;63981;51.052;13.754;2022-12-18T13:43:22;102199.59;;;-2.27;67.42
75063;BME280;63981;51.052;13.754;2022-12-18T13:48:37;102200.63;;;-2.17;67.85
75063;BME280;63981;51.052;13.754;2022-12-18T13:51:07;102159.72;;;-2.43;66.61
75063;BME280;63981;51.052;13.754;2022-12-18T13:56:43;102189.16;;;-2.33;67.27
75063;BME280;63981;51.052;13.754;2022-12-18T13:59:22;102193.72;;;-2.20;67.49
75063;BME280;63981;51.052;13.754;2022-12-18T14:01:55;102206.25;;;-2.40;68.40
75063;BME280;63981;51.052;13.754;2022-12-18T14:04:28;102203.63;;;-2.41;68.93
75063;BME280;63981;51.052;13.754;2022-12-18T14:07:12;102139.00;;;-2.91;69.34
75063;BME280;63981;51.052;13.754;2022-12-18T14:09:45;102206.66;;;-2.62;68.93
75063;BME280;63981;51.052;13.754;2022-12-18T14:12:22;102202.72;;;-2.87;69.86
75063;BME280;63981;51.052;13.754;2022-12-18T14:18:03;102164.66;;;-3.77;71.37
75063;BME280;63981;51.052;13.754;2022-12-18T14:20:35;102170.53;;;-3.06;71.17
75063;BME280;63981;51.052;13.754;2022-12-18T14:23:03;102163.03;;;-3.34;70.84
75063;BME280;63981;51.052;13.754;2022-12-18T14:25:30;102166.06;;;-3.13;71.21
75063;BME280;63981;51.052;13.754;2022-12-18T14:28:08;102187.53;;;-3.14;71.16
75063;BME280;63981;51.052;13.754;2022-12-18T14:30:44;102137.66;;;-3.55;72.02
75063;BME280;63981;51.052;13.754;2022-12-18T14:33:16;102172.25;;;-3.45;71.70
75063;BME280;63981;51.052;13.754;2022-12-18T14:36:05;102182.66;;;-3.41;72.94
75063;BME280;63981;51.052;13.754;2022-12-18T14:38:39;102173.44;;;-3.67;73.50
75063;BME280;63981;51.052;13.754;2022-12-18T14:41:14;102177.03;;;-3.62;74.16
75063;BME280;63981;51.052;13.754;2022-12-18T14:43:47;102180.50;;;-3.60;73.38
75063;BME280;63981;51.052;13.754;2022-12-18T14:46:44;102160.19;;;-3.84;74.69
75063;BME280;63981;51.052;13.754;2022-12-18T14:49:21;102130.13;;;-4.20;75.06
75063;BME280;63981;51.052;13.754;2022-12-18T14:51:51;102049.41;;;-4.56;74.66
75063;BME280;63981;51.052;13.754;2022-12-18T14:54:19;102178.06;;;-3.90;75.00
75063;BME280;63981;51.052;13.754;2022-12-18T14:57:35;102179.41;;;-4.04;75.07
75063;BME280;63981;51.052;13.754;2022-12-18T14:59:34;102192.91;;;-4.14;76.10
75063;BME280;63981;51.052;13.754;2022-12-18T15:02:23;102200.00;;;-4.04;76.29
75063;BME280;63981;51.052;13.754;2022-12-18T15:07:44;102201.28;;;-4.55;77.48
75063;BME280;63981;51.052;13.754;2022-12-18T15:10:20;102183.19;;;-4.25;76.83
75063;BME280;63981;51.052;13.754;2022-12-18T15:13:07;102189.03;;;-4.30;76.05
75063;BME280;63981;51.052;13.754;2022-12-18T15:18:12;102181.56;;;-4.21;75.94
75063;BME280;63981;51.052;13.754;2022-12-18T15:20:40;102189.38;;;-4.51;77.04
75063;BME280;63981;51.052;13.754;2022-12-18T15:25:56;102171.41;;;-4.50;77.41
75063;BME280;63981;51.052;13.754;2022-12-18T15:28:50;102175.13;;;-4.38;77.80
75063;BME280;63981;51.052;13.754;2022-12-18T15:31:29;102184.63;;;-4.36;76.93
75063;BME280;63981;51.052;13.754;2022-12-18T15:36:23;102179.38;;;-4.40;77.51
75063;BME280;63981;51.052;13.754;2022-12-18T15:38:51;102161.06;;;-4.51;76.94
75063;BME280;63981;51.052;13.754;2022-12-18T15:41:19;102107.75;;;-4.88;78.21
75063;BME280;63981;51.052;13.754;2022-12-18T15:43:47;102161.72;;;-4.58;78.34
75063;BME280;63981;51.052;13.754;2022-12-18T15:46:15;102170.53;;;-4.50;77.50
75063;BME280;63981;51.052;13.754;2022-12-18T15:48:43;102168.06;;;-4.46;77.86
75063;BME280;63981;51.052;13.754;2022-12-18T15:51:19;102096.16;;;-5.06;77.88
75063;BME280;63981;51.052;13.754;2022-12-18T15:53:47;102130.81;;;-4.91;77.79
75063;BME280;63981;51.052;13.754;2022-12-18T15:56:15;102169.47;;;-4.57;77.54
75063;BME280;63981;51.052;13.754;2022-12-18T15:59:01;102125.22;;;-4.77;78.42
75063;BME280;63981;51.052;13.754;2022-12-18T16:01:29;102160.13;;;-4.55;79.03
75063;BME280;63981;51.052;13.754;2022-12-18T16:04:16;102053.16;;;-5.10;77.21
75063;BME280;63981;51.052;13.754;2022-12-18T16:06:43;102153.56;;;-4.75;78.26
75063;BME280;63981;51.052;13.754;2022-12-18T16:09:09;102135.66;;;-4.70;77.67
75063;BME280;63981;51.052;13.754;2022-12-18T16:11:37;102092.47;;;-4.82;77.59
75063;BME280;63981;51.052;13.754;2022-12-18T16:14:24;102144.09;;;-4.76;79.00
75063;BME280;63981;51.052;13.754;2022-12-18T16:16:56;102147.69;;;-4.69;78.60
75063;BME280;63981;51.052;13.754;2022-12-18T16:19:23;102139.47;;;-4.56;78.33
75063;BME280;63981;51.052;13.754;2022-12-18T16:21:51;102075.16;;;-4.89;77.78
75063;BME280;63981;51.052;13.754;2022-12-18T16:24:20;102141.03;;;-4.63;78.47
75063;BME280;63981;51.052;13.754;2022-12-18T16:26:48;102131.34;;;-4.71;78.56
75063;BME280;63981;51.052;13.754;2022-12-18T16:29:15;102146.78;;;-4.71;77.72
75063;BME280;63981;51.052;13.754;2022-12-18T16:31:41;102071.59;;;-4.94;77.89
75063;BME280;63981;51.052;13.754;2022-12-18T16:34:22;102135.03;;;-4.62;77.94
75063;BME280;63981;51.052;13.754;2022-12-18T16:36:49;102055.16;;;-4.99;78.15
75063;BME280;63981;51.052;13.754;2022-12-18T16:39:16;102134.38;;;-4.55;78.11
75063;BME280;63981;51.052;13.754;2022-12-18T16:42:06;102153.66;;;-4.39;77.67
75063;BME280;63981;51.052;13.754;2022-12-18T16:44:34;102141.81;;;-4.32;77.42
75063;BME280;63981;51.052;13.754;2022-12-18T16:47:01;102108.16;;;-4.40;77.52
75063;BME280;63981;51.052;13.754;2022-12-18T16:49:28;102139.03;;;-4.41;77.83
75063;BME280;63981;51.052;13.754;2022-12-18T16:51:54;102035.81;;;-4.85;77.37
75063;BME280;63981;51.052;13.754;2022-12-18T16:54:21;102054.19;;;-5.05;78.91
75063;BME280;63981;51.052;13.754;2022-12-18T16:56:47;102144.38;;;-4.65;77.83
75063;BME280;63981;51.052;13.754;2022-12-18T16:59:17;102134.63;;;-4.44;78.05
75063;BME280;63981;51.052;13.754;2022-12-18T17:01:43;102135.09;;;-4.27;77.85